Time;durP1;ratioP1;P1;durP2;ratioP2;P2;SDS_P1;SDS_P2;PMS_P1;PMS_P2;Temp;Humidity;BMP_temperature;BMP_pressure;BME280_temperature;BME280_humidity;BME280_pressure;Samples;Min_cycle;Max_cycle;Signal;HPM_P1;HPM_P2
2022/02/25 00:00:26;;;;;;;0.97;0.77;;;;;;;2.80;89.96;99980.44;5114629;28;20169;-75
2022/02/25 00:02:52;;;;;;;1.60;0.70;;;;;;;2.84;89.84;99984.19;5114448;28;20677;-75
2022/02/25 00:05:17;;;;;;;2.43;1.00;;;;;;;2.84;89.29;99976.09;5114097;28;20180;-74
2022/02/25 00:07:43;;;;;;;0.63;0.63;;;;;;;2.84;89.40;99994.19;5112973;28;20176;-75
2022/02/25 00:10:10;;;;;;;0.20;0.20;;;;;;;2.84;89.66;99989.59;5113836;28;20721;-73
2022/02/25 00:12:35;;;;;;;1.97;1.70;;;;;;;2.89;88.99;99999.56;5113684;28;20173;-75
2022/02/25 00:15:01;;;;;;;0.40;0.40;;;;;;;2.92;88.99;100010.63;5113712;27;20696;-75
2022/02/25 00:17:27;;;;;;;1.13;1.03;;;;;;;2.93;88.46;100016.84;5114101;28;20183;-75
2022/02/25 00:19:53;;;;;;;0.57;0.57;;;;;;;2.99;88.22;100029.22;5113751;28;20169;-75
2022/02/25 00:22:18;;;;;;;0.57;0.30;;;;;;;2.98;88.01;100028.44;5133177;27;20199;-76
2022/02/25 00:24:43;;;;;;;0.73;0.73;;;;;;;2.98;88.05;100033.00;5133878;27;20649;-75
2022/02/25 00:27:09;;;;;;;2.37;1.10;;;;;;;2.93;88.36;100039.22;5133498;27;20204;-75
2022/02/25 00:29:34;;;;;;;0.93;0.93;;;;;;;2.89;89.03;100040.88;5133408;27;20204;-74
2022/02/25 00:32:00;;;;;;;0.80;0.60;;;;;;;2.86;88.98;100037.88;5133396;27;20237;-74
2022/02/25 00:34:25;;;;;;;2.83;2.27;;;;;;;2.89;88.20;100057.06;5133218;27;20596;-74
2022/02/25 00:36:51;;;;;;;0.47;0.47;;;;;;;2.91;87.43;100064.88;5132906;27;20267;-74
2022/02/25 00:39:16;;;;;;;1.90;1.50;;;;;;;2.86;88.20;100062.97;5133456;27;20195;-76
2022/02/25 00:41:41;;;;;;;20.33;0.93;;;;;;;2.83;88.85;100051.91;5133146;27;20748;-74
2022/02/25 00:44:07;;;;;;;4.10;1.43;;;;;;;2.81;88.80;100071.06;5131832;27;20188;-74
2022/02/25 00:46:32;;;;;;;5.17;0.80;;;;;;;2.80;89.13;100071.34;5132835;27;20172;-75
2022/02/25 00:48:58;;;;;;;0.77;0.77;;;;;;;2.80;88.73;100072.16;5132820;27;20168;-75
2022/02/25 00:51:23;;;;;;;0.53;0.53;;;;;;;2.77;89.12;100072.69;5133067;27;20176;-75
2022/02/25 00:53:49;;;;;;;0.40;0.40;;;;;;;2.73;89.42;100068.06;5132904;27;20172;-74
2022/02/25 00:56:14;;;;;;;2.20;1.77;;;;;;;2.67;89.86;100072.66;5133186;27;20658;-74
2022/02/25 00:58:40;;;;;;;0.50;0.50;;;;;;;2.67;89.41;100083.47;5132811;27;20208;-75
2022/02/25 01:01:05;;;;;;;3.30;0.63;;;;;;;2.62;89.59;100078.88;5133009;27;20176;-76
2022/02/25 01:03:30;;;;;;;0.37;0.37;;;;;;;2.61;89.47;100081.84;5132806;27;20168;-73
2022/02/25 01:05:56;;;;;;;0.77;0.77;;;;;;;2.58;89.73;100083.16;5132629;27;20672;-74
2022/02/25 01:08:21;;;;;;;2.10;1.10;;;;;;;2.57;89.90;100095.03;5131197;27;20183;-73
2022/02/25 01:10:47;;;;;;;0.53;0.53;;;;;;;2.56;89.43;100087.22;5132903;27;20206;-74
2022/02/25 01:13:12;;;;;;;3.00;1.03;;;;;;;2.57;89.26;100092.34;5132643;27;20264;-75
2022/02/25 01:15:37;;;;;;;0.30;0.30;;;;;;;2.55;89.50;100099.88;5132570;27;20203;-75
2022/02/25 01:18:06;;;;;;;0.70;0.70;;;;;;;2.53;90.03;100082.34;5132256;27;20259;-74
2022/02/25 01:20:31;;;;;;;0.40;0.40;;;;;;;2.57;89.61;100092.34;5131171;27;20187;-75
2022/02/25 01:22:56;;;;;;;0.47;0.47;;;;;;;2.60;89.31;100110.69;5132508;27;20168;-74
2022/02/25 01:25:22;;;;;;;0.90;0.87;;;;;;;2.63;89.24;100109.34;5132343;27;20679;-75
2022/02/25 01:27:48;;;;;;;2.83;0.90;;;;;;;2.67;89.21;100127.41;5132384;27;20172;-75
2022/02/25 01:30:13;;;;;;;0.70;0.70;;;;;;;2.76;88.55;100116.94;5132090;27;20236;-74
2022/02/25 01:32:39;;;;;;;1.13;0.93;;;;;;;2.84;88.02;100123.66;5132196;27;20223;-75
2022/02/25 01:35:05;;;;;;;3.73;1.43;;;;;;;2.86;88.12;100125.00;5132144;27;20168;-73
2022/02/25 01:37:30;;;;;;;2.70;1.50;;;;;;;2.86;88.66;100126.91;5132239;27;20525;-73
2022/02/25 01:39:56;;;;;;;5.50;1.67;;;;;;;2.86;88.94;100132.28;5132267;27;20232;-73
2022/02/25 01:42:21;;;;;;;2.90;0.70;;;;;;;2.83;89.40;100133.66;5132189;27;20620;-74
2022/02/25 01:44:47;;;;;;;1.50;1.40;;;;;;;2.81;89.34;100127.72;5132069;27;20172;-74
2022/02/25 01:47:13;;;;;;;2.03;1.07;;;;;;;2.80;89.59;100149.56;5131876;27;20746;-74
2022/02/25 01:49:40;;;;;;;3.83;1.23;;;;;;;2.78;89.47;100136.34;5130448;27;20204;-74
2022/02/25 01:52:10;;;;;;;2.43;1.53;;;;;;;2.74;89.51;100151.41;5131829;27;20181;-74
2022/02/25 01:54:35;;;;;;;1.70;1.60;;;;;;;2.67;89.98;100150.88;5132120;27;20259;-75
2022/02/25 01:57:01;;;;;;;1.00;0.93;;;;;;;2.66;89.98;100152.75;5131699;27;20691;-74
2022/02/25 01:59:29;;;;;;;1.80;1.60;;;;;;;2.66;89.65;100160.06;5130783;27;20213;-74
2022/02/25 02:01:54;;;;;;;0.83;0.83;;;;;;;2.64;89.55;100167.59;5131809;27;20200;-74
2022/02/25 02:04:20;;;;;;;1.70;1.03;;;;;;;2.64;89.81;100162.22;5131855;27;20226;-74
2022/02/25 02:06:45;;;;;;;0.93;0.93;;;;;;;2.61;89.41;100166.25;5131470;27;20161;-74
2022/02/25 02:09:11;;;;;;;4.33;1.77;;;;;;;2.58;89.48;100157.84;5130238;28;20510;-74
2022/02/25 02:11:43;;;;;;;0.33;0.33;;;;;;;2.54;89.40;100160.28;5131667;27;20203;-74
2022/02/25 02:14:13;;;;;;;1.07;1.07;;;;;;;2.51;88.75;100158.13;5117102;27;20180;-74
2022/02/25 02:16:40;;;;;;;0.80;0.80;;;;;;;2.45;89.35;100164.56;5111228;28;20181;-75
2022/02/25 02:19:06;;;;;;;0.77;0.77;;;;;;;2.39;89.90;100171.81;5111078;28;20176;-75
2022/02/25 02:21:34;;;;;;;1.13;1.13;;;;;;;2.36;89.89;100161.56;5109966;28;20613;-74
2022/02/25 02:24:01;;;;;;;0.77;0.57;;;;;;;2.30;90.19;100149.13;5111334;28;20268;-74
2022/02/25 02:26:28;;;;;;;0.17;0.17;;;;;;;2.29;90.22;100165.56;5111136;28;20184;-74
2022/02/25 02:28:53;;;;;;;1.67;1.47;;;;;;;2.27;90.45;100163.16;5110868;28;20545;-74
2022/02/25 02:31:18;;;;;;;0.77;0.60;;;;;;;2.23;90.39;100164.75;5114661;28;20211;-74
2022/02/25 02:33:45;;;;;;;0.80;0.80;;;;;;;2.19;90.60;100163.66;5114958;28;20259;-74
2022/02/25 02:36:10;;;;;;;0.70;0.57;;;;;;;2.13;90.78;100164.69;5114891;28;20185;-75
2022/02/25 02:38:37;;;;;;;4.20;1.20;;;;;;;2.08;91.19;100170.88;5114974;28;20373;-74
2022/02/25 02:41:04;;;;;;;1.20;1.20;;;;;;;2.06;91.52;100172.22;5115114;28;20173;-74
2022/02/25 02:43:29;;;;;;;3.50;1.83;;;;;;;2.05;91.48;100173.31;5115025;28;20256;-74
2022/02/25 02:45:55;;;;;;;1.30;0.93;;;;;;;2.05;91.39;100170.59;5115055;28;20698;-74
2022/02/25 02:48:21;;;;;;;0.37;0.37;;;;;;;2.05;91.15;100186.78;5114803;28;20655;-73
2022/02/25 02:50:46;;;;;;;0.97;0.97;;;;;;;2.02;91.47;100190.78;5114800;28;20201;-75
2022/02/25 02:53:14;;;;;;;3.53;1.23;;;;;;;2.00;91.51;100184.03;5114742;28;20226;-75
2022/02/25 02:55:40;;;;;;;1.03;0.93;;;;;;;1.98;91.50;100186.19;5114703;28;20197;-75
2022/02/25 02:58:05;;;;;;;1.00;1.00;;;;;;;1.98;91.70;100180.78;5114360;28;20169;-74
2022/02/25 03:00:31;;;;;;;1.00;0.90;;;;;;;1.95;91.80;100189.41;5114471;28;20628;-74
2022/02/25 03:02:56;;;;;;;0.37;0.37;;;;;;;1.96;91.63;100204.50;5114592;27;20504;-74
2022/02/25 03:05:23;;;;;;;1.77;1.67;;;;;;;1.96;91.54;100182.94;5114447;28;20169;-74
2022/02/25 03:07:48;;;;;;;3.20;2.30;;;;;;;1.97;91.02;100190.75;5113064;28;20597;-74
2022/02/25 03:10:15;;;;;;;6.13;2.47;;;;;;;1.99;90.77;100183.22;5114501;28;20550;-74
2022/02/25 03:12:41;;;;;;;0.80;0.80;;;;;;;2.01;90.53;100199.94;5114342;28;20576;-74
2022/02/25 03:15:07;;;;;;;1.80;1.17;;;;;;;2.01;90.16;100199.13;5114459;28;20494;-74
2022/02/25 03:17:33;;;;;;;2.07;1.53;;;;;;;1.99;90.02;100199.38;5114295;28;20205;-74
2022/02/25 03:20:00;;;;;;;2.03;1.70;;;;;;;1.97;90.42;100206.91;5114066;28;20237;-74
2022/02/25 03:22:25;;;;;;;4.87;2.70;;;;;;;1.97;90.16;100193.44;5114107;28;20460;-75
2022/02/25 03:24:54;;;;;;;1.93;1.83;;;;;;;1.99;89.88;100201.25;5114135;28;20642;-75
2022/02/25 03:27:19;;;;;;;2.43;1.47;;;;;;;2.04;89.23;100204.00;5114581;28;20177;-75
2022/02/25 03:29:45;;;;;;;2.63;1.70;;;;;;;2.09;89.01;100198.63;5116550;28;20386;-74
2022/02/25 03:32:11;;;;;;;2.17;1.97;;;;;;;2.13;88.78;100207.00;5116854;28;20161;-74
2022/02/25 03:34:36;;;;;;;3.30;0.60;;;;;;;2.14;88.85;100201.34;5114770;28;20177;-74
2022/02/25 03:37:01;;;;;;;1.60;1.50;;;;;;;2.16;88.51;100223.44;5113769;28;20185;-74
2022/02/25 03:39:27;;;;;;;4.07;2.13;;;;;;;2.16;88.48;100211.88;5113876;28;20217;-75
2022/02/25 03:41:52;;;;;;;2.57;2.10;;;;;;;2.16;88.50;100209.16;5111066;28;20335;-74
2022/02/25 03:44:18;;;;;;;1.13;1.13;;;;;;;2.17;88.57;100213.47;5113912;28;20382;-75
2022/02/25 03:46:43;;;;;;;12.60;2.30;;;;;;;2.20;88.57;100224.56;5113637;27;20174;-74
2022/02/25 03:49:08;;;;;;;3.00;2.33;;;;;;;2.21;88.29;100222.69;5113596;28;20180;-75
2022/02/25 03:51:34;;;;;;;6.20;1.50;;;;;;;2.20;88.47;100218.38;5113706;27;20506;-74
2022/02/25 03:53:59;;;;;;;1.90;1.80;;;;;;;2.21;88.11;100223.50;5113692;27;20538;-75
2022/02/25 03:56:24;;;;;;;0.97;0.97;;;;;;;2.24;87.98;100224.84;5113929;28;20220;-74
2022/02/25 03:58:50;;;;;;;0.83;0.83;;;;;;;2.23;87.89;100232.13;5113518;28;20249;-74
2022/02/25 04:01:15;;;;;;;2.23;1.77;;;;;;;2.26;88.04;100241.56;5113533;28;20177;-74
2022/02/25 04:03:41;;;;;;;2.77;1.43;;;;;;;2.27;87.96;100249.41;5113816;28;20195;-74
2022/02/25 04:06:06;;;;;;;1.77;1.67;;;;;;;2.34;87.32;100239.22;5113898;28;20252;-73
2022/02/25 04:08:33;;;;;;;0.93;0.90;;;;;;;2.35;87.03;100257.00;5133246;27;20180;-75
2022/02/25 04:10:59;;;;;;;1.60;1.50;;;;;;;2.33;87.45;100234.88;5134299;27;20196;-74
2022/02/25 04:13:25;;;;;;;0.67;0.67;;;;;;;2.32;87.83;100243.25;5133076;27;20169;-75
2022/02/25 04:15:51;;;;;;;1.83;1.73;;;;;;;2.33;87.49;100255.66;5134353;27;20662;-73
2022/02/25 04:18:16;;;;;;;4.53;1.03;;;;;;;2.29;88.00;100244.56;5134623;27;20164;-75
2022/02/25 04:20:42;;;;;;;3.50;1.83;;;;;;;2.28;88.35;100234.03;5134356;27;20164;-74
2022/02/25 04:23:07;;;;;;;0.97;0.90;;;;;;;2.26;88.73;100255.84;5134219;27;20175;-74
2022/02/25 04:25:32;;;;;;;0.73;0.73;;;;;;;2.28;88.49;100250.22;5134109;27;20176;-75
2022/02/25 04:27:58;;;;;;;4.17;1.17;;;;;;;2.29;88.11;100257.22;5134373;27;20216;-74
2022/02/25 04:30:25;;;;;;;0.77;0.73;;;;;;;2.26;88.74;100239.69;5133651;27;20211;-74
2022/02/25 04:32:51;;;;;;;10.07;1.23;;;;;;;2.28;88.64;100240.22;5132472;27;20544;-74
2022/02/25 04:35:19;;;;;;;4.37;1.10;;;;;;;2.32;88.06;100251.31;5133880;27;20418;-75
2022/02/25 04:37:46;;;;;;;6.17;2.90;;;;;;;2.34;88.01;100255.38;5133366;27;20690;-75
2022/02/25 04:40:12;;;;;;;0.83;0.83;;;;;;;2.35;87.79;100251.59;5133927;27;20678;-74
2022/02/25 04:42:38;;;;;;;0.53;0.40;;;;;;;2.37;87.47;100257.53;5133898;27;20164;-74
2022/02/25 04:45:05;;;;;;;1.40;1.30;;;;;;;2.42;87.41;100245.16;5134219;27;20550;-75
2022/02/25 04:47:31;;;;;;;2.00;1.03;;;;;;;2.46;86.47;100252.47;5133637;27;20176;-74
2022/02/25 04:49:56;;;;;;;1.97;0.63;;;;;;;2.49;86.00;100251.94;5133545;27;20257;-74
2022/02/25 04:52:22;;;;;;;1.10;0.97;;;;;;;2.49;86.37;100257.34;5134430;27;20304;-74
2022/02/25 04:54:48;;;;;;;1.53;1.43;;;;;;;2.51;85.97;100246.28;5133879;27;20172;-75
2022/02/25 04:57:13;;;;;;;1.07;0.97;;;;;;;2.51;85.96;100227.41;5133309;27;20255;-76
2022/02/25 04:59:39;;;;;;;1.00;0.83;;;;;;;2.50;86.24;100241.97;5133378;27;20606;-76
2022/02/25 05:02:06;;;;;;;1.37;1.03;;;;;;;2.50;85.86;100253.56;5133580;27;20164;-77
2022/02/25 05:04:32;;;;;;;2.53;1.50;;;;;;;2.54;85.36;100249.25;5132983;27;20188;-75
2022/02/25 05:06:57;;;;;;;1.03;0.83;;;;;;;2.55;85.19;100252.78;5132890;27;20199;-74
2022/02/25 05:09:22;;;;;;;0.97;0.77;;;;;;;2.56;85.21;100254.38;5134163;27;20168;-74
2022/02/25 05:11:48;;;;;;;1.50;1.03;;;;;;;2.54;85.54;100237.66;5133418;27;20172;-76
2022/02/25 05:22:26;;;;;;;6.40;0.90;;;;;;;2.54;84.78;100251.16;5133268;27;20179;-76
2022/02/25 05:24:52;;;;;;;7.83;2.03;;;;;;;2.50;85.06;100244.66;5133079;27;20177;-75
2022/02/25 05:27:17;;;;;;;0.57;0.57;;;;;;;2.48;85.20;100247.63;5132817;27;20180;-75
2022/02/25 05:29:44;;;;;;;13.87;0.97;;;;;;;2.45;85.21;100241.94;5132843;27;20674;-74
2022/02/25 05:32:09;;;;;;;0.80;0.80;;;;;;;2.47;84.97;100261.38;5132750;27;20180;-75
2022/02/25 05:34:34;;;;;;;4.00;1.57;;;;;;;2.49;84.77;100251.94;5132198;27;20496;-75
2022/02/25 05:37:00;;;;;;;4.57;1.40;;;;;;;2.51;84.88;100267.84;5132170;27;20199;-75
2022/02/25 05:39:25;;;;;;;0.90;0.60;;;;;;;2.50;84.83;100266.25;5132329;27;20214;-75
2022/02/25 05:41:51;;;;;;;1.50;1.40;;;;;;;2.50;85.18;100252.75;5132470;27;20186;-75
2022/02/25 05:44:17;;;;;;;18.03;1.63;;;;;;;2.49;85.23;100264.63;5132543;27;20200;-75
2022/02/25 05:46:44;;;;;;;1.60;1.50;;;;;;;2.46;85.44;100267.81;5132235;27;20172;-76
2022/02/25 05:49:09;;;;;;;1.00;1.00;;;;;;;2.43;85.60;100265.66;5132272;27;20173;-75
2022/02/25 05:51:35;;;;;;;1.80;1.10;;;;;;;2.43;85.85;100271.84;5132179;27;20179;-75
2022/02/25 05:54:00;;;;;;;1.70;0.97;;;;;;;2.46;85.82;100267.81;5132192;27;20187;-76
2022/02/25 05:56:26;;;;;;;3.53;0.60;;;;;;;2.46;85.77;100273.22;5132025;27;20207;-75
2022/02/25 05:58:52;;;;;;;1.00;0.87;;;;;;;2.45;86.11;100260.81;5131653;27;20168;-75
2022/02/25 06:01:18;;;;;;;1.33;1.23;;;;;;;2.46;85.93;100259.72;5131772;27;20181;-75
2022/02/25 06:03:43;;;;;;;0.77;0.77;;;;;;;2.47;85.68;100264.88;5131420;27;20170;-75
2022/02/25 06:06:08;;;;;;;2.63;1.50;;;;;;;2.45;85.84;100263.50;5131393;27;20666;-75
2022/02/25 06:08:34;;;;;;;1.90;0.63;;;;;;;2.46;85.89;100271.34;5131552;27;20183;-75
2022/02/25 06:10:59;;;;;;;0.70;0.70;;;;;;;2.49;85.77;100270.81;5131534;27;20220;-75
2022/02/25 06:13:25;;;;;;;0.67;0.67;;;;;;;2.50;85.38;100272.44;5131778;27;20185;-75
2022/02/25 06:15:50;;;;;;;1.00;0.90;;;;;;;2.51;85.40;100282.16;5131696;28;20176;-74
2022/02/25 06:18:17;;;;;;;3.40;1.17;;;;;;;2.48;85.62;100279.19;5131352;27;20685;-75
2022/02/25 06:20:43;;;;;;;8.30;0.97;;;;;;;2.43;86.17;100293.41;5131660;27;20169;-74
2022/02/25 06:23:08;;;;;;;0.67;0.47;;;;;;;2.44;86.08;100276.16;5131543;27;20176;-75
2022/02/25 06:25:34;;;;;;;1.30;0.80;;;;;;;2.46;86.33;100284.84;5111214;27;20710;-75
2022/02/25 06:28:00;;;;;;;0.73;0.40;;;;;;;2.47;86.24;100277.56;5110906;28;20165;-75
2022/02/25 06:30:25;;;;;;;2.23;0.83;;;;;;;2.50;86.31;100293.19;5111048;28;20295;-75
2022/02/25 06:32:52;;;;;;;3.30;0.40;;;;;;;2.49;85.74;100284.31;5111098;28;20230;-75
2022/02/25 06:35:17;;;;;;;2.60;0.93;;;;;;;2.50;85.79;100279.72;5111142;28;20601;-74
2022/02/25 06:37:43;;;;;;;0.30;0.30;;;;;;;2.53;85.70;100293.47;5110760;28;20276;-76
2022/02/25 06:40:12;;;;;;;3.60;0.60;;;;;;;2.56;85.45;100284.06;5111301;28;20201;-75
2022/02/25 06:42:38;;;;;;;1.90;1.33;;;;;;;2.58;85.51;100290.81;5111416;28;20171;-75
2022/02/25 06:45:04;;;;;;;1.33;1.00;;;;;;;2.58;85.56;100303.47;5111275;28;20173;-77
2022/02/25 06:47:30;;;;;;;9.27;6.07;;;;;;;2.58;85.58;100301.59;5111163;28;20585;-75
2022/02/25 06:49:55;;;;;;;1.33;1.33;;;;;;;2.58;85.43;100309.69;5111087;28;20212;-75
2022/02/25 06:52:20;;;;;;;7.50;2.73;;;;;;;2.54;85.83;100313.16;5111153;28;20181;-75
2022/02/25 06:54:46;;;;;;;6.80;3.03;;;;;;;2.51;86.17;100314.50;5111174;28;20173;-76
2022/02/25 06:57:12;;;;;;;3.67;0.67;;;;;;;2.53;85.69;100312.34;5111016;28;20174;-74
2022/02/25 06:59:37;;;;;;;2.87;2.50;;;;;;;2.56;86.32;100314.53;5111389;28;20180;-75
2022/02/25 07:02:03;;;;;;;17.53;0.60;;;;;;;2.59;86.25;100305.91;5111209;28;20169;-74
2022/02/25 07:04:28;;;;;;;1.23;0.40;;;;;;;2.62;85.80;100318.88;5111112;28;20173;-74
2022/02/25 07:06:54;;;;;;;3.00;1.30;;;;;;;2.64;85.89;100310.53;5110783;28;20644;-75
2022/02/25 07:09:20;;;;;;;1.00;0.70;;;;;;;2.63;85.55;100309.72;5110732;28;20176;-74
2022/02/25 07:11:45;;;;;;;2.10;0.70;;;;;;;2.64;85.26;100291.66;5110786;28;20169;-78
2022/02/25 07:14:10;;;;;;;0.30;0.30;;;;;;;2.63;85.27;100315.13;5110770;28;20174;-77
2022/02/25 07:16:36;;;;;;;0.50;0.50;;;;;;;2.64;85.12;100318.63;5112932;28;20165;-75
2022/02/25 07:19:01;;;;;;;1.03;0.77;;;;;;;2.69;84.62;100307.84;5112971;28;20177;-75
2022/02/25 07:21:27;;;;;;;0.23;0.23;;;;;;;2.73;84.78;100316.22;5114440;28;20173;-74
2022/02/25 07:23:52;;;;;;;1.80;0.80;;;;;;;2.74;84.48;100296.25;5114408;28;20260;-74
2022/02/25 07:26:18;;;;;;;1.37;0.47;;;;;;;2.78;84.75;100319.78;5114233;28;20165;-76
2022/02/25 07:28:44;;;;;;;1.63;1.53;;;;;;;2.81;84.31;100318.44;5114038;28;20172;-75
2022/02/25 07:31:09;;;;;;;0.70;0.50;;;;;;;2.87;84.27;100330.84;5112803;28;20196;-75
2022/02/25 07:33:34;;;;;;;4.63;1.37;;;;;;;2.92;84.11;100350.59;5127356;27;20208;-74
2022/02/25 07:36:00;;;;;;;0.90;0.90;;;;;;;2.98;83.60;100341.44;5134177;27;20176;-76
2022/02/25 07:38:25;;;;;;;6.13;0.97;;;;;;;3.07;83.42;100338.25;5134406;27;20248;-74
2022/02/25 07:40:50;;;;;;;1.43;1.30;;;;;;;3.13;83.12;100345.28;5134423;27;20257;-75
2022/02/25 07:43:18;;;;;;;1.57;1.00;;;;;;;3.15;82.49;100341.22;5134485;27;20169;-76
2022/02/25 07:45:48;;;;;;;9.87;0.93;;;;;;;3.14;82.20;100341.50;5134363;27;20176;-75
2022/02/25 07:48:14;;;;;;;5.50;1.33;;;;;;;3.16;82.50;100347.44;5126012;27;20168;-77
2022/02/25 07:50:40;;;;;;;0.93;0.93;;;;;;;3.16;82.17;100344.75;5124065;27;20296;-74
2022/02/25 07:53:06;;;;;;;1.37;1.07;;;;;;;3.19;82.00;100344.22;5135019;27;20167;-74
2022/02/25 07:55:31;;;;;;;0.70;0.70;;;;;;;3.22;82.29;100371.50;5134594;27;20164;-72
2022/02/25 07:57:57;;;;;;;3.53;1.07;;;;;;;3.21;81.60;100361.78;5134056;27;20172;-74
2022/02/25 08:00:24;;;;;;;10.70;0.73;;;;;;;3.26;81.87;100363.69;5134212;27;20169;-72
2022/02/25 08:02:49;;;;;;;8.47;2.03;;;;;;;3.24;81.91;100360.44;5134152;27;20203;-73
2022/02/25 08:05:15;;;;;;;1.70;1.50;;;;;;;3.21;81.81;100358.28;5134143;27;20200;-74
2022/02/25 08:07:42;;;;;;;5.37;0.80;;;;;;;3.16;82.18;100355.53;5134155;27;20172;-74
2022/02/25 08:10:08;;;;;;;1.80;1.47;;;;;;;3.12;82.43;100357.16;5133829;27;20219;-74
2022/02/25 08:12:33;;;;;;;2.33;0.60;;;;;;;3.10;82.59;100351.19;5133708;27;20568;-75
2022/02/25 08:14:59;;;;;;;4.33;2.10;;;;;;;3.13;82.93;100348.78;5133587;27;20218;-73
2022/02/25 08:17:24;;;;;;;2.63;0.43;;;;;;;3.20;83.09;100348.56;5133586;27;20168;-73
2022/02/25 08:19:50;;;;;;;4.80;0.60;;;;;;;3.34;82.35;100356.97;5133489;27;20169;-73
2022/02/25 08:22:15;;;;;;;1.23;0.93;;;;;;;3.54;82.46;100362.41;5133346;27;20186;-73
2022/02/25 08:24:40;;;;;;;2.00;1.40;;;;;;;3.63;81.37;100362.72;5133389;27;20219;-74
2022/02/25 08:27:06;;;;;;;1.13;0.83;;;;;;;3.65;80.95;100374.88;5132264;27;20173;-74
2022/02/25 08:29:31;;;;;;;1.53;1.20;;;;;;;3.63;80.91;100374.31;5133130;27;20192;-73
2022/02/25 08:31:57;;;;;;;1.53;0.73;;;;;;;3.64;81.15;100377.84;5133852;27;20191;-74
2022/02/25 08:34:22;;;;;;;1.43;1.20;;;;;;;3.66;81.82;100371.09;5132769;27;20173;-73
2022/02/25 08:36:48;;;;;;;0.67;0.53;;;;;;;3.61;81.39;100389.16;5132824;27;20211;-73
2022/02/25 08:39:13;;;;;;;9.70;1.33;;;;;;;3.52;81.56;100391.56;5133105;27;20664;-74
2022/02/25 08:41:39;;;;;;;2.73;1.27;;;;;;;3.45;81.75;100389.13;5133077;27;20175;-73
2022/02/25 08:44:04;;;;;;;0.93;0.40;;;;;;;3.45;81.69;100381.00;5133082;27;20208;-74
2022/02/25 08:46:31;;;;;;;0.53;0.53;;;;;;;3.53;81.95;100377.81;5133005;27;20175;-75
2022/02/25 08:48:58;;;;;;;0.03;0.03;;;;;;;3.55;81.54;100377.53;5132841;27;20567;-73
2022/02/25 08:51:23;;;;;;;0.60;0.50;;;;;;;3.54;82.05;100365.91;5133210;27;20196;-75
2022/02/25 08:53:49;;;;;;;2.07;1.13;;;;;;;3.57;81.88;100387.00;5132879;27;20623;-74
2022/02/25 08:56:14;;;;;;;4.67;0.30;;;;;;;3.67;81.41;100374.59;5132753;27;20526;-76
2022/02/25 08:58:40;;;;;;;0.33;0.30;;;;;;;3.78;81.61;100385.16;5132536;27;20187;-73
2022/02/25 09:01:05;;;;;;;5.07;2.47;;;;;;;3.83;81.11;100387.03;5132813;27;20172;-73
2022/02/25 09:03:31;;;;;;;1.70;0.47;;;;;;;3.93;80.98;100400.59;5132830;27;20177;-75
2022/02/25 09:05:56;;;;;;;10.13;1.60;;;;;;;3.84;81.21;100392.19;5132752;27;20160;-77
2022/02/25 09:08:21;;;;;;;1.83;1.43;;;;;;;3.70;80.42;100392.97;5132442;27;20168;-73
2022/02/25 09:10:49;;;;;;;7.33;1.40;;;;;;;3.68;81.75;100389.72;5132563;27;20669;-75
2022/02/25 09:13:14;;;;;;;1.07;0.97;;;;;;;3.66;81.76;100381.06;5132982;27;20165;-73
2022/02/25 09:15:40;;;;;;;4.20;1.03;;;;;;;3.66;81.89;100372.97;5132474;27;20165;-76
2022/02/25 09:18:10;;;;;;;1.87;1.77;;;;;;;3.69;81.71;100380.53;5132548;27;20168;-74
2022/02/25 09:20:35;;;;;;;2.83;1.50;;;;;;;3.75;81.48;100365.94;5132566;27;20169;-73
2022/02/25 09:23:00;;;;;;;4.00;0.87;;;;;;;3.86;81.44;100367.59;5132428;27;20558;-75
2022/02/25 09:25:27;;;;;;;1.20;0.67;;;;;;;3.97;80.80;100376.53;5132479;27;20168;-74
2022/02/25 09:27:52;;;;;;;5.77;1.00;;;;;;;4.04;80.04;100380.56;5130783;27;20164;-76
2022/02/25 09:30:18;;;;;;;3.90;3.03;;;;;;;4.22;79.49;100354.91;5132587;27;20542;-74
2022/02/25 09:32:45;;;;;;;1.43;1.33;;;;;;;4.20;79.24;100359.78;5132874;27;20251;-75
2022/02/25 09:35:11;;;;;;;4.13;1.33;;;;;;;4.20;79.31;100348.97;5131842;27;20215;-73
2022/02/25 09:37:36;;;;;;;11.97;1.90;;;;;;;4.21;79.36;100350.59;5131585;27;20185;-74
2022/02/25 09:40:06;;;;;;;2.90;0.50;;;;;;;4.22;79.52;100359.50;5132176;27;20317;-74
2022/02/25 09:42:31;;;;;;;2.43;0.97;;;;;;;4.07;79.13;100393.56;5132067;27;20180;-75
2022/02/25 09:44:57;;;;;;;1.33;0.57;;;;;;;3.98;79.54;100378.97;5131984;27;20168;-75
2022/02/25 09:47:24;;;;;;;4.37;1.77;;;;;;;3.93;80.09;100373.56;5131559;27;20523;-74
2022/02/25 09:49:49;;;;;;;2.37;1.20;;;;;;;3.97;80.21;100358.41;5131866;27;20196;-74
2022/02/25 09:52:15;;;;;;;1.90;1.43;;;;;;;3.94;80.46;100372.47;5131883;27;20173;-74
2022/02/25 09:54:42;;;;;;;0.57;0.57;;;;;;;3.89;80.58;100362.44;5131781;27;20655;-74
2022/02/25 09:57:07;;;;;;;10.53;1.20;;;;;;;3.87;80.65;100361.91;5131357;27;20183;-74
2022/02/25 09:59:34;;;;;;;4.43;1.10;;;;;;;3.87;80.97;100371.91;5131695;27;20173;-75
2022/02/25 10:02:04;;;;;;;1.33;0.90;;;;;;;3.84;81.50;100386.78;5131747;27;20230;-74
2022/02/25 10:04:30;;;;;;;0.57;0.57;;;;;;;3.84;81.92;100386.78;5131688;27;20259;-74
2022/02/25 10:06:55;;;;;;;9.87;1.40;;;;;;;3.84;82.92;100369.75;5131299;27;20604;-74
2022/02/25 10:09:32;;;;;;;11.63;0.50;;;;;;;3.85;83.23;100377.59;5131360;27;20573;-73
2022/02/25 10:11:59;;;;;;;1.10;0.97;;;;;;;3.84;83.86;100416.50;5131355;27;20168;-76
2022/02/25 10:14:30;;;;;;;3.33;1.87;;;;;;;3.68;86.48;100430.25;5131390;27;20177;-75
2022/02/25 10:17:13;;;;;;;3.93;1.30;;;;;;;3.29;89.97;100411.75;5131362;27;20248;-73
2022/02/25 10:19:39;;;;;;;2.80;1.10;;;;;;;3.13;92.73;100407.34;5131598;27;20164;-75
2022/02/25 10:22:18;;;;;;;24.10;2.67;;;;;;;2.98;95.15;100417.00;5131640;27;20229;-75
2022/02/25 10:24:44;;;;;;;1.07;0.97;;;;;;;2.88;96.78;100416.94;5131474;27;20579;-73
2022/02/25 10:27:26;;;;;;;6.03;1.47;;;;;;;2.84;98.12;100426.63;5131369;27;20620;-75
2022/02/25 10:30:01;;;;;;;0.60;0.50;;;;;;;2.80;99.25;100425.53;5131519;27;20185;-75
2022/02/25 10:32:43;;;;;;;2.30;1.53;;;;;;;2.82;100.00;100438.75;5131608;27;20654;-75
2022/02/25 10:35:21;;;;;;;0.20;0.20;;;;;;;2.81;100.00;100431.75;5133117;27;20177;-74
2022/02/25 10:38:11;;;;;;;1.03;0.87;;;;;;;2.83;100.00;100443.88;5128471;28;20183;-75
2022/02/25 10:40:37;;;;;;;0.73;0.70;;;;;;;2.85;100.00;100447.13;5151332;27;20469;-75
2022/02/25 10:43:21;;;;;;;0.70;0.70;;;;;;;2.89;100.00;100448.25;5147244;27;20174;-75
2022/02/25 10:45:48;;;;;;;6.40;1.43;;;;;;;2.94;100.00;100450.16;5130634;27;20182;-76
2022/02/25 10:48:17;;;;;;;1.40;1.13;;;;;;;2.99;100.00;100455.59;5139958;27;20180;-74
2022/02/25 10:50:50;;;;;;;6.70;1.40;;;;;;;3.08;100.00;100469.41;5132097;27;20195;-75
2022/02/25 10:53:18;;;;;;;1.27;0.80;;;;;;;3.15;99.53;100461.88;5135263;27;20176;-75
2022/02/25 10:55:47;;;;;;;1.17;1.07;;;;;;;3.21;99.08;100463.56;5135125;27;20168;-75
2022/02/25 10:58:15;;;;;;;5.13;3.03;;;;;;;3.28;98.18;100474.91;5134757;27;20267;-75
2022/02/25 11:00:40;;;;;;;1.93;1.83;;;;;;;3.35;96.73;100483.59;5135115;27;20165;-74
2022/02/25 11:03:06;;;;;;;0.47;0.47;;;;;;;3.44;95.76;100478.50;5135023;27;20188;-76
2022/02/25 11:05:34;;;;;;;4.80;2.00;;;;;;;3.46;95.63;100471.75;5134797;27;20255;-75
2022/02/25 11:08:04;;;;;;;0.43;0.43;;;;;;;3.48;95.15;100458.81;5134376;27;20172;-73
2022/02/25 11:10:35;;;;;;;2.20;1.30;;;;;;;3.53;94.94;100460.72;5134563;27;20211;-75
2022/02/25 11:13:05;;;;;;;0.37;0.37;;;;;;;3.59;94.10;100479.38;5134626;27;20238;-73
2022/02/25 11:15:34;;;;;;;0.57;0.57;;;;;;;3.68;93.16;100465.38;5135037;27;20197;-74
2022/02/25 11:18:00;;;;;;;0.67;0.67;;;;;;;3.72;92.80;100455.66;5134271;27;20255;-73
2022/02/25 11:20:28;;;;;;;1.97;1.77;;;;;;;3.78;91.87;100465.41;5134457;27;20173;-73
2022/02/25 11:22:58;;;;;;;2.57;1.10;;;;;;;3.86;91.68;100465.69;5134393;27;20169;-74
2022/02/25 11:25:23;;;;;;;1.20;1.20;;;;;;;3.91;90.93;100480.31;5134273;27;20267;-73
2022/02/25 11:27:49;;;;;;;1.30;1.20;;;;;;;3.91;90.40;100477.59;5134008;27;20181;-73
2022/02/25 11:30:28;;;;;;;1.00;1.00;;;;;;;3.93;90.64;100478.97;5132795;27;20201;-74
2022/02/25 11:32:56;;;;;;;1.43;0.53;;;;;;;3.95;91.10;100482.22;5134317;27;20237;-76
2022/02/25 11:35:38;;;;;;;1.27;1.20;;;;;;;3.97;90.73;100482.75;5132299;27;20176;-73
2022/02/25 11:38:11;;;;;;;7.77;2.00;;;;;;;3.96;90.18;100483.03;5133806;27;20188;-74